Time;durP1;ratioP1;P1;durP2;ratioP2;P2;SDS_P1;SDS_P2;PMS_P1;PMS_P2;Temp;Humidity;BMP_temperature;BMP_pressure;BME280_temperature;BME280_humidity;BME280_pressure;Samples;Min_cycle;Max_cycle;Signal;HPM_P1;HPM_P2
2022/10/09 00:01:21;;;;;;;3.53;3.33;;;;;;;;;;5072963;28;20048;-93
2022/10/09 00:03:50;;;;;;;3.00;1.92;;;;;;;;;;5073330;28;20106;-93
2022/10/09 00:06:18;;;;;;;2.10;1.90;;;;;;;;;;5072740;28;20053;-94
2022/10/09 00:08:46;;;;;;;2.80;1.83;;;;;;;;;;5072990;28;20170;-93
2022/10/09 00:11:14;;;;;;;2.47;1.38;;;;;;;;;;5072816;28;20492;-94
2022/10/09 00:13:40;;;;;;;0.93;0.93;;;;;;;;;;5073073;28;20458;-93
2022/10/09 00:16:08;;;;;;;2.35;2.13;;;;;;;;;;5074129;28;20117;-93
2022/10/09 00:18:35;;;;;;;1.70;1.50;;;;;;;;;;5076911;28;20057;-93
2022/10/09 00:21:02;;;;;;;2.80;2.20;;;;;;;;;;5074507;28;20052;-93
2022/10/09 00:23:29;;;;;;;1.98;1.85;;;;;;;;;;5057005;28;20099;-93
2022/10/09 00:25:57;;;;;;;2.03;1.92;;;;;;;;;;5057014;28;20048;-93
2022/10/09 00:28:25;;;;;;;3.13;2.92;;;;;;;;;;5056759;28;20049;-93
2022/10/09 00:30:52;;;;;;;4.22;3.22;;;;;;;;;;5057183;28;20049;-94
2022/10/09 00:33:18;;;;;;;2.67;1.83;;;;;;;;;;5057326;28;20049;-93
2022/10/09 00:35:45;;;;;;;2.80;2.35;;;;;;;;;;5057246;28;20057;-93
2022/10/09 00:38:11;;;;;;;2.33;1.90;;;;;;;;;;5056431;28;20542;-93
2022/10/09 00:40:38;;;;;;;3.63;3.28;;;;;;;;;;5056785;28;20053;-93
2022/10/09 00:43:10;;;;;;;2.72;2.53;;;;;;;;;;5074839;28;20061;-93
2022/10/09 00:45:36;;;;;;;2.42;2.22;;;;;;;;;;5076476;28;20052;-93
2022/10/09 00:48:05;;;;;;;2.58;2.38;;;;;;;;;;5076184;28;20484;-93
2022/10/09 00:50:36;;;;;;;2.83;2.38;;;;;;;;;;5076109;28;20094;-94
2022/10/09 00:53:03;;;;;;;5.50;2.67;;;;;;;;;;5075992;28;20106;-93
2022/10/09 00:55:30;;;;;;;2.50;1.58;;;;;;;;;;5080039;28;20052;-95
2022/10/09 00:57:59;;;;;;;2.60;2.05;;;;;;;;;;5083320;28;20048;-94
2022/10/09 01:00:27;;;;;;;2.08;1.50;;;;;;;;;;5086606;28;20405;-95
2022/10/09 01:02:53;;;;;;;5.38;2.17;;;;;;;;;;5067796;28;20076;-96
2022/10/09 01:05:24;;;;;;;1.75;1.65;;;;;;;;;;5061767;28;20045;-95
2022/10/09 01:07:53;;;;;;;1.63;1.52;;;;;;;;;;5063399;28;20727;-96
2022/10/09 01:10:27;;;;;;;2.13;2.00;;;;;;;;;;5063383;28;20053;-95
2022/10/09 01:12:59;;;;;;;1.92;1.83;;;;;;;;;;5063425;28;20056;-95
2022/10/09 01:15:30;;;;;;;1.90;1.80;;;;;;;;;;5062939;28;20048;-95
2022/10/09 01:18:00;;;;;;;2.03;1.90;;;;;;;;;;5078635;28;20079;-96
2022/10/09 01:20:30;;;;;;;2.65;2.45;;;;;;;;;;5082596;28;20048;-96
2022/10/09 01:23:06;;;;;;;2.97;2.78;;;;;;;;;;5068733;28;20075;-95
2022/10/09 01:25:35;;;;;;;2.95;2.20;;;;;;;;;;5065753;28;20564;-96
2022/10/09 01:28:05;;;;;;;3.00;2.50;;;;;;;;;;5081968;28;20131;-96
2022/10/09 01:30:32;;;;;;;4.78;2.53;;;;;;;;;;5085319;28;20049;-94
2022/10/09 01:32:59;;;;;;;2.53;2.38;;;;;;;;;;5076003;28;20049;-94
2022/10/09 01:35:26;;;;;;;2.88;2.15;;;;;;;;;;5076166;28;20052;-93
2022/10/09 01:37:53;;;;;;;2.58;2.03;;;;;;;;;;5075579;28;20121;-94
2022/10/09 01:40:20;;;;;;;2.75;2.03;;;;;;;;;;5075344;28;20093;-94
2022/10/09 01:42:47;;;;;;;4.05;1.90;;;;;;;;;;5075614;28;20052;-94
2022/10/09 01:45:15;;;;;;;2.13;1.92;;;;;;;;;;5075219;28;20455;-94
2022/10/09 01:47:42;;;;;;;3.40;2.03;;;;;;;;;;5075418;28;20098;-94
2022/10/09 01:50:14;;;;;;;1.77;1.67;;;;;;;;;;5075346;28;20045;-94
2022/10/09 01:52:44;;;;;;;3.22;1.65;;;;;;;;;;5075444;28;20049;-94
2022/10/09 01:55:25;;;;;;;2.95;2.60;;;;;;;;;;5075012;28;20048;-94
2022/10/09 01:57:55;;;;;;;1.63;1.52;;;;;;;;;;5075046;28;20053;-95
2022/10/09 02:00:23;;;;;;;3.03;2.83;;;;;;;;;;5075047;28;20122;-94
2022/10/09 02:02:49;;;;;;;1.95;1.55;;;;;;;;;;5075419;28;20048;-94
2022/10/09 02:05:19;;;;;;;1.23;1.10;;;;;;;;;;5075029;28;20044;-94
2022/10/09 02:07:45;;;;;;;3.97;2.67;;;;;;;;;;5075088;28;20056;-94
2022/10/09 02:10:12;;;;;;;1.58;1.48;;;;;;;;;;5075210;28;20040;-95
2022/10/09 02:12:41;;;;;;;3.10;2.80;;;;;;;;;;5074601;28;20492;-94
2022/10/09 02:15:08;;;;;;;1.23;1.13;;;;;;;;;;5074448;28;20135;-95
2022/10/09 02:17:38;;;;;;;3.53;3.22;;;;;;;;;;5074491;28;20114;-95
2022/10/09 02:20:09;;;;;;;2.53;1.80;;;;;;;;;;5074762;28;20521;-95
2022/10/09 02:22:35;;;;;;;3.08;2.80;;;;;;;;;;5074617;28;20048;-95
2022/10/09 02:25:04;;;;;;;2.90;2.70;;;;;;;;;;5074726;28;20113;-94
2022/10/09 02:27:31;;;;;;;2.75;0.98;;;;;;;;;;5066790;28;20053;-94
2022/10/09 02:29:58;;;;;;;1.63;1.17;;;;;;;;;;5054316;28;20150;-95
2022/10/09 02:32:25;;;;;;;3.30;2.90;;;;;;;;;;5060959;28;20450;-95
2022/10/09 02:34:53;;;;;;;1.92;1.52;;;;;;;;;;5074266;28;20110;-94
2022/10/09 02:37:19;;;;;;;2.55;2.35;;;;;;;;;;5074525;28;20052;-95
2022/10/09 02:39:46;;;;;;;2.63;2.15;;;;;;;;;;5073563;28;20048;-95
2022/10/09 02:42:12;;;;;;;5.10;2.63;;;;;;;;;;5074554;28;20052;-95
2022/10/09 02:44:39;;;;;;;2.63;2.42;;;;;;;;;;5059370;28;20057;-93
2022/10/09 02:47:05;;;;;;;3.45;2.65;;;;;;;;;;5053950;28;20566;-93
2022/10/09 02:49:32;;;;;;;4.15;1.75;;;;;;;;;;5054412;28;20048;-93
2022/10/09 02:52:00;;;;;;;1.98;1.88;;;;;;;;;;5062823;28;20053;-93
2022/10/09 02:54:26;;;;;;;3.83;3.53;;;;;;;;;;5062485;28;20099;-93
2022/10/09 02:56:53;;;;;;;2.63;2.38;;;;;;;;;;5053704;28;20071;-93
2022/10/09 02:59:19;;;;;;;3.45;2.72;;;;;;;;;;5066871;28;20060;-94
2022/10/09 03:01:46;;;;;;;1.73;1.52;;;;;;;;;;5074020;28;20053;-93
2022/10/09 03:04:12;;;;;;;2.83;2.63;;;;;;;;;;5063842;28;20053;-93
2022/10/09 03:06:39;;;;;;;2.03;1.88;;;;;;;;;;5073691;28;20106;-93
2022/10/09 03:09:06;;;;;;;4.45;1.98;;;;;;;;;;5073613;28;20113;-94
2022/10/09 03:11:33;;;;;;;4.72;1.80;;;;;;;;;;5053953;28;20094;-94
2022/10/09 03:13:59;;;;;;;3.72;1.55;;;;;;;;;;5053540;28;20618;-94
2022/10/09 03:16:26;;;;;;;1.60;1.50;;;;;;;;;;5053367;28;20111;-93
2022/10/09 03:18:53;;;;;;;2.45;2.25;;;;;;;;;;5053171;28;20455;-93
2022/10/09 03:21:20;;;;;;;2.47;2.28;;;;;;;;;;5053770;28;20052;-93
2022/10/09 03:23:47;;;;;;;1.65;1.55;;;;;;;;;;5053768;28;20045;-92
2022/10/09 03:26:15;;;;;;;1.63;1.48;;;;;;;;;;5053348;28;20052;-93
2022/10/09 03:28:43;;;;;;;1.50;1.40;;;;;;;;;;5053380;28;20049;-92
2022/10/09 03:31:10;;;;;;;2.72;1.88;;;;;;;;;;5053261;28;20172;-92
2022/10/09 03:33:37;;;;;;;1.70;1.60;;;;;;;;;;5053299;28;20053;-95
2022/10/09 03:36:04;;;;;;;1.50;1.40;;;;;;;;;;5053395;28;20456;-93
2022/10/09 03:38:30;;;;;;;1.80;1.70;;;;;;;;;;5053547;28;20479;-93
2022/10/09 03:40:58;;;;;;;1.92;1.75;;;;;;;;;;5053439;28;20103;-93
2022/10/09 03:43:27;;;;;;;2.03;1.65;;;;;;;;;;5053307;28;20111;-93
2022/10/09 03:45:54;;;;;;;1.85;1.75;;;;;;;;;;5053330;28;20052;-94
2022/10/09 03:48:20;;;;;;;2.40;2.22;;;;;;;;;;5053349;28;20096;-92
2022/10/09 03:50:47;;;;;;;1.73;1.23;;;;;;;;;;5052273;28;20045;-93
2022/10/09 03:53:14;;;;;;;1.95;1.52;;;;;;;;;;5052972;28;20466;-93
2022/10/09 03:55:41;;;;;;;4.82;2.47;;;;;;;;;;5052875;28;20166;-93
2022/10/09 03:58:07;;;;;;;1.48;1.38;;;;;;;;;;5052941;28;20049;-93
2022/10/09 04:00:35;;;;;;;4.28;2.90;;;;;;;;;;5053199;28;20056;-94
2022/10/09 04:03:02;;;;;;;1.88;1.55;;;;;;;;;;5052647;28;20443;-93
2022/10/09 04:05:29;;;;;;;2.60;2.40;;;;;;;;;;5053137;28;20390;-93
2022/10/09 04:07:56;;;;;;;2.13;2.03;;;;;;;;;;5053068;28;20059;-93
2022/10/09 04:10:22;;;;;;;1.77;1.55;;;;;;;;;;5052579;28;20053;-93
2022/10/09 04:12:49;;;;;;;2.67;1.52;;;;;;;;;;5052755;28;20098;-91
2022/10/09 04:15:16;;;;;;;2.10;1.80;;;;;;;;;;5052881;28;20068;-93
2022/10/09 04:17:44;;;;;;;3.15;2.13;;;;;;;;;;5052601;28;20049;-93
2022/10/09 04:20:10;;;;;;;1.55;1.45;;;;;;;;;;5053061;28;20119;-93
2022/10/09 04:22:37;;;;;;;1.45;1.35;;;;;;;;;;5052815;28;20049;-93
2022/10/09 04:25:03;;;;;;;2.25;2.05;;;;;;;;;;5053166;28;20103;-94
2022/10/09 04:27:30;;;;;;;1.92;1.40;;;;;;;;;;5052614;28;20886;-94
2022/10/09 04:29:57;;;;;;;3.47;2.13;;;;;;;;;;5053017;28;20049;-92
2022/10/09 04:32:23;;;;;;;2.17;1.92;;;;;;;;;;5052673;28;20103;-91
2022/10/09 04:34:51;;;;;;;3.70;2.00;;;;;;;;;;5052750;28;20098;-94
2022/10/09 04:37:17;;;;;;;1.30;1.15;;;;;;;;;;5052617;28;20083;-93
2022/10/09 04:39:44;;;;;;;1.92;1.77;;;;;;;;;;5052466;28;20049;-94
2022/10/09 04:42:10;;;;;;;2.05;1.92;;;;;;;;;;5053035;28;20531;-93
2022/10/09 04:44:37;;;;;;;2.55;1.60;;;;;;;;;;5052602;28;20103;-94
2022/10/09 04:47:03;;;;;;;2.45;2.33;;;;;;;;;;5052346;28;20601;-94
2022/10/09 04:49:30;;;;;;;1.48;1.35;;;;;;;;;;5052815;28;20110;-93
2022/10/09 04:51:58;;;;;;;1.45;1.35;;;;;;;;;;5052659;28;20041;-94
2022/10/09 04:54:24;;;;;;;2.10;2.00;;;;;;;;;;5052655;28;20053;-92
2022/10/09 04:56:51;;;;;;;2.42;2.15;;;;;;;;;;5052631;28;20049;-94
2022/10/09 04:59:17;;;;;;;2.25;1.92;;;;;;;;;;5052265;28;20555;-94
2022/10/09 05:01:44;;;;;;;1.23;1.13;;;;;;;;;;5053513;28;20049;-93
2022/10/09 05:04:10;;;;;;;3.08;2.88;;;;;;;;;;5055559;28;20079;-94
2022/10/09 05:06:37;;;;;;;2.08;1.73;;;;;;;;;;5056339;28;20044;-93
2022/10/09 05:09:05;;;;;;;4.38;2.78;;;;;;;;;;5056395;28;20049;-93
2022/10/09 05:11:31;;;;;;;2.00;1.58;;;;;;;;;;5056271;28;20114;-93
2022/10/09 05:13:58;;;;;;;3.13;2.15;;;;;;;;;;5056370;28;20466;-95
2022/10/09 05:16:26;;;;;;;1.35;1.25;;;;;;;;;;5055896;28;20049;-95
2022/10/09 05:18:53;;;;;;;2.08;1.98;;;;;;;;;;5056167;28;20103;-93
2022/10/09 05:21:20;;;;;;;2.55;2.42;;;;;;;;;;5055837;28;20056;-93
2022/10/09 05:23:47;;;;;;;3.65;3.42;;;;;;;;;;5055839;28;20107;-92
2022/10/09 05:26:16;;;;;;;1.98;1.88;;;;;;;;;;5053729;28;20412;-93
2022/10/09 05:28:42;;;;;;;1.27;0.88;;;;;;;;;;5055660;28;20053;-94
2022/10/09 05:31:09;;;;;;;1.80;1.65;;;;;;;;;;5056599;28;20637;-94
2022/10/09 05:33:36;;;;;;;2.40;1.73;;;;;;;;;;5062078;28;20790;-94
2022/10/09 05:36:04;;;;;;;3.80;3.50;;;;;;;;;;5060236;28;20049;-95
2022/10/09 05:38:32;;;;;;;2.33;2.13;;;;;;;;;;5055444;28;20107;-95
2022/10/09 05:40:59;;;;;;;2.40;2.28;;;;;;;;;;5055266;28;20045;-93
2022/10/09 05:43:28;;;;;;;2.63;2.42;;;;;;;;;;5053016;28;20460;-93
2022/10/09 05:45:54;;;;;;;2.60;2.40;;;;;;;;;;5055002;28;20095;-93
2022/10/09 05:48:21;;;;;;;2.72;2.53;;;;;;;;;;5054924;28;20489;-93
2022/10/09 05:50:48;;;;;;;3.88;3.58;;;;;;;;;;5055066;28;20056;-93
2022/10/09 05:53:14;;;;;;;5.05;3.38;;;;;;;;;;5073883;28;20182;-93
2022/10/09 05:55:42;;;;;;;3.08;2.88;;;;;;;;;;5066273;28;20052;-92
2022/10/09 05:58:08;;;;;;;3.00;2.70;;;;;;;;;;5055683;28;20178;-92
2022/10/09 06:00:36;;;;;;;3.60;3.25;;;;;;;;;;5064474;28;20040;-92
2022/10/09 06:03:03;;;;;;;5.55;3.03;;;;;;;;;;5074905;28;20052;-93
2022/10/09 06:05:29;;;;;;;3.65;2.80;;;;;;;;;;5074550;28;20496;-92
2022/10/09 06:07:56;;;;;;;2.60;2.35;;;;;;;;;;5065642;28;20099;-92
2022/10/09 06:10:22;;;;;;;4.00;3.70;;;;;;;;;;5054211;28;20045;-92
2022/10/09 06:12:49;;;;;;;3.58;3.28;;;;;;;;;;5053815;28;20049;-92
2022/10/09 06:15:15;;;;;;;2.40;2.17;;;;;;;;;;5072122;28;20052;-92
2022/10/09 06:17:43;;;;;;;3.08;2.83;;;;;;;;;;5056520;28;20052;-92
2022/10/09 06:20:10;;;;;;;6.47;4.20;;;;;;;;;;5054627;28;20057;-92
2022/10/09 06:22:36;;;;;;;4.65;3.25;;;;;;;;;;5071875;28;20044;-92
2022/10/09 06:25:03;;;;;;;4.50;3.75;;;;;;;;;;5060574;28;20049;-93
2022/10/09 06:27:29;;;;;;;2.25;1.75;;;;;;;;;;5053989;28;20053;-93
2022/10/09 06:29:56;;;;;;;5.90;4.32;;;;;;;;;;5054595;28;20095;-93
2022/10/09 06:32:23;;;;;;;4.45;4.05;;;;;;;;;;5054322;28;20045;-93
2022/10/09 06:34:52;;;;;;;3.25;3.03;;;;;;;;;;5053802;28;20496;-93
2022/10/09 06:37:18;;;;;;;5.03;3.30;;;;;;;;;;5054261;28;20479;-91
2022/10/09 06:39:45;;;;;;;3.95;3.03;;;;;;;;;;5059481;28;20045;-92
2022/10/09 06:42:11;;;;;;;3.85;3.47;;;;;;;;;;5054045;28;20094;-93
2022/10/09 06:44:38;;;;;;;3.28;2.65;;;;;;;;;;5057385;28;20492;-91
2022/10/09 06:47:04;;;;;;;3.42;3.00;;;;;;;;;;5075857;28;20052;-93
2022/10/09 06:49:31;;;;;;;4.45;3.45;;;;;;;;;;5074975;28;20102;-90
2022/10/09 06:51:59;;;;;;;5.45;4.70;;;;;;;;;;5055663;28;20049;-90
2022/10/09 06:54:25;;;;;;;3.60;3.03;;;;;;;;;;5053846;28;20051;-94
2022/10/09 06:56:53;;;;;;;2.83;2.63;;;;;;;;;;5063251;28;20488;-94
2022/10/09 06:59:20;;;;;;;5.25;4.75;;;;;;;;;;5074713;28;20098;-94
2022/10/09 07:01:46;;;;;;;5.60;4.07;;;;;;;;;;5075533;28;20114;-96
2022/10/09 07:04:16;;;;;;;3.55;3.17;;;;;;;;;;5074671;28;20048;-94
2022/10/09 07:06:44;;;;;;;5.05;4.65;;;;;;;;;;5073835;28;20060;-92
2022/10/09 07:09:12;;;;;;;4.38;4.05;;;;;;;;;;5076988;28;20045;-92
2022/10/09 07:11:40;;;;;;;5.22;4.18;;;;;;;;;;5071138;28;20028;-92
2022/10/09 07:14:07;;;;;;;4.57;3.42;;;;;;;;;;5063768;28;20105;-92
2022/10/09 07:16:34;;;;;;;5.07;4.25;;;;;;;;;;5074239;28;20114;-93
2022/10/09 07:19:05;;;;;;;4.80;4.38;;;;;;;;;;5073203;28;20484;-92
2022/10/09 07:21:31;;;;;;;3.70;3.30;;;;;;;;;;5073841;28;20044;-93
2022/10/09 07:23:59;;;;;;;2.55;2.35;;;;;;;;;;5069925;28;20052;-92
2022/10/09 07:26:28;;;;;;;5.03;4.63;;;;;;;;;;5053159;28;20463;-92
2022/10/09 07:28:54;;;;;;;4.13;3.50;;;;;;;;;;5053283;28;20416;-92
2022/10/09 07:31:21;;;;;;;5.45;5.05;;;;;;;;;;5052833;28;20049;-92
2022/10/09 07:33:48;;;;;;;3.75;3.40;;;;;;;;;;5053018;28;20447;-92
2022/10/09 07:36:15;;;;;;;3.72;3.20;;;;;;;;;;5053179;28;20052;-92
2022/10/09 07:38:41;;;;;;;10.00;3.88;;;;;;;;;;5053075;28;20053;-91
2022/10/09 07:41:09;;;;;;;7.15;4.25;;;;;;;;;;5072986;28;20052;-91
2022/10/09 07:43:37;;;;;;;5.20;4.05;;;;;;;;;;5072914;28;20050;-92
2022/10/09 07:46:05;;;;;;;5.03;4.40;;;;;;;;;;5072974;28;20117;-92
2022/10/09 07:48:31;;;;;;;4.35;3.95;;;;;;;;;;5058305;28;20103;-91
2022/10/09 07:50:58;;;;;;;3.78;3.47;;;;;;;;;;5071354;28;20053;-92
2022/10/09 07:53:24;;;;;;;3.80;3.50;;;;;;;;;;5072801;28;20492;-92
2022/10/09 07:55:51;;;;;;;4.30;3.90;;;;;;;;;;5072594;28;20106;-92
2022/10/09 07:58:18;;;;;;;4.45;3.97;;;;;;;;;;5072710;28;20060;-91
2022/10/09 08:00:46;;;;;;;4.88;4.10;;;;;;;;;;5056538;28;20060;-91
2022/10/09 08:03:12;;;;;;;3.63;3.25;;;;;;;;;;5052874;28;20053;-91
2022/10/09 08:05:39;;;;;;;10.82;4.07;;;;;;;;;;5059216;28;20045;-90
2022/10/09 08:08:05;;;;;;;4.82;3.63;;;;;;;;;;5072623;28;20052;-91
2022/10/09 08:10:32;;;;;;;6.40;4.88;;;;;;;;;;5072167;28;20546;-91
2022/10/09 08:12:58;;;;;;;6.47;4.88;;;;;;;;;;5072242;28;20040;-91
2022/10/09 08:15:25;;;;;;;6.13;4.43;;;;;;;;;;5071873;28;20049;-91
2022/10/09 08:17:53;;;;;;;5.70;5.07;;;;;;;;;;5072423;28;20111;-92
2022/10/09 08:20:20;;;;;;;6.28;4.78;;;;;;;;;;5060865;28;20053;-91
2022/10/09 08:22:46;;;;;;;5.60;5.10;;;;;;;;;;5052056;28;20045;-91
2022/10/09 08:25:13;;;;;;;8.82;4.47;;;;;;;;;;5052219;28;20053;-91
2022/10/09 08:27:39;;;;;;;4.13;3.40;;;;;;;;;;5052217;28;20048;-92
2022/10/09 08:30:06;;;;;;;5.72;3.83;;;;;;;;;;5052049;28;20045;-91
2022/10/09 08:32:33;;;;;;;4.97;4.30;;;;;;;;;;5051966;28;20493;-91
2022/10/09 08:35:01;;;;;;;6.38;3.70;;;;;;;;;;5060011;28;20048;-92
2022/10/09 08:37:28;;;;;;;8.57;4.40;;;;;;;;;;5074590;28;20109;-91
2022/10/09 08:39:54;;;;;;;7.78;4.53;;;;;;;;;;5065856;28;20485;-92
2022/10/09 08:42:27;;;;;;;4.32;3.92;;;;;;;;;;5055883;28;20122;-93
2022/10/09 08:44:53;;;;;;;8.70;4.25;;;;;;;;;;5056214;28;20052;-93
2022/10/09 08:47:21;;;;;;;5.78;4.43;;;;;;;;;;5056036;28;20397;-93
2022/10/09 08:49:50;;;;;;;5.25;4.63;;;;;;;;;;5055628;28;20095;-92
2022/10/09 08:52:23;;;;;;;5.93;4.55;;;;;;;;;;5055602;28;20107;-91
2022/10/09 08:54:50;;;;;;;6.20;4.32;;;;;;;;;;5055596;28;20048;-92
2022/10/09 08:57:17;;;;;;;4.97;3.97;;;;;;;;;;5056176;28;20106;-94
2022/10/09 08:59:43;;;;;;;8.45;4.20;;;;;;;;;;5065552;28;20642;-93
2022/10/09 09:02:23;;;;;;;5.40;4.43;;;;;;;;;;5051039;28;20045;-92
2022/10/09 09:04:56;;;;;;;3.58;3.22;;;;;;;;;;5060067;28;20480;-92
2022/10/09 09:07:28;;;;;;;6.05;5.32;;;;;;;;;;5075380;28;20106;-95
2022/10/09 09:09:57;;;;;;;4.63;4.10;;;;;;;;;;5075587;28;20118;-93
2022/10/09 09:12:28;;;;;;;5.78;3.45;;;;;;;;;;5075190;28;20090;-91
2022/10/09 09:15:01;;;;;;;4.95;3.22;;;;;;;;;;5069804;28;20106;-91
2022/10/09 09:17:32;;;;;;;5.15;4.75;;;;;;;;;;5054705;28;20107;-91
2022/10/09 09:20:03;;;;;;;5.05;3.75;;;;;;;;;;5060332;28;20133;-93
2022/10/09 09:22:32;;;;;;;3.35;2.17;;;;;;;;;;5075290;28;20096;-93
2022/10/09 09:25:02;;;;;;;5.63;5.00;;;;;;;;;;5075238;28;20135;-93
2022/10/09 09:27:30;;;;;;;7.30;3.80;;;;;;;;;;5075206;28;20056;-93
2022/10/09 09:29:58;;;;;;;4.15;3.58;;;;;;;;;;5073870;28;20382;-92
2022/10/09 09:32:27;;;;;;;4.25;3.10;;;;;;;;;;5074887;28;20036;-91
2022/10/09 09:34:57;;;;;;;3.65;3.25;;;;;;;;;;5075082;28;20054;-93
2022/10/09 09:37:23;;;;;;;3.83;3.53;;;;;;;;;;5075035;28;20044;-93
2022/10/09 09:39:51;;;;;;;6.30;3.83;;;;;;;;;;5074823;28;20099;-95
2022/10/09 09:42:19;;;;;;;4.22;3.22;;;;;;;;;;5074848;28;20052;-94
2022/10/09 09:44:49;;;;;;;4.07;3.72;;;;;;;;;;5074564;28;20106;-93
2022/10/09 09:47:20;;;;;;;5.03;3.63;;;;;;;;;;5073344;28;20044;-92
2022/10/09 09:49:53;;;;;;;3.47;3.17;;;;;;;;;;5074570;28;20135;-93
2022/10/09 09:52:20;;;;;;;3.42;3.13;;;;;;;;;;5068670;28;20443;-92
2022/10/09 09:54:48;;;;;;;4.97;4.05;;;;;;;;;;5074109;28;20053;-93
2022/10/09 09:57:24;;;;;;;6.47;3.03;;;;;;;;;;5074353;28;20053;-91
2022/10/09 09:59:51;;;;;;;5.60;3.13;;;;;;;;;;5073669;28;20052;-91
2022/10/09 10:02:18;;;;;;;3.28;2.78;;;;;;;;;;5072684;28;20048;-90
2022/10/09 10:04:49;;;;;;;5.38;3.67;;;;;;;;;;5054089;28;20048;-91
2022/10/09 10:07:26;;;;;;;4.50;3.15;;;;;;;;;;5054288;28;20053;-92
2022/10/09 10:10:01;;;;;;;4.93;4.40;;;;;;;;;;5054056;28;20055;-92
2022/10/09 10:12:29;;;;;;;3.92;3.53;;;;;;;;;;5053824;28;20053;-92
2022/10/09 10:14:55;;;;;;;8.50;4.07;;;;;;;;;;5054054;28;20116;-90
2022/10/09 10:17:26;;;;;;;5.80;3.90;;;;;;;;;;5069624;28;20052;-90
2022/10/09 10:19:52;;;;;;;4.13;3.72;;;;;;;;;;5067842;28;20102;-92
2022/10/09 10:22:22;;;;;;;12.13;5.85;;;;;;;;;;5073876;28;20056;-92
2022/10/09 10:24:50;;;;;;;5.00;4.38;;;;;;;;;;5068707;28;20167;-93
2022/10/09 10:27:21;;;;;;;5.03;4.57;;;;;;;;;;5065515;28;20102;-93
2022/10/09 10:29:50;;;;;;;5.40;4.40;;;;;;;;;;5066808;28;20128;-92
2022/10/09 10:32:19;;;;;;;5.97;4.20;;;;;;;;;;5053936;28;20095;-91
2022/10/09 10:34:49;;;;;;;5.20;4.70;;;;;;;;;;5066584;28;20102;-92
2022/10/09 10:37:25;;;;;;;5.40;5.00;;;;;;;;;;5072301;28;20103;-92
2022/10/09 10:39:54;;;;;;;3.30;3.08;;;;;;;;;;5073532;28;20122;-92
2022/10/09 10:42:22;;;;;;;5.50;4.68;;;;;;;;;;5068147;28;20044;-92
2022/10/09 10:44:53;;;;;;;5.93;5.47;;;;;;;;;;5053461;28;20053;-93
2022/10/09 10:47:21;;;;;;;6.10;4.95;;;;;;;;;;5053432;28;20114;-92
2022/10/09 10:49:48;;;;;;;6.10;5.60;;;;;;;;;;5053141;28;20086;-93
2022/10/09 10:52:23;;;;;;;5.25;4.85;;;;;;;;;;5053140;28;20467;-93
2022/10/09 10:54:52;;;;;;;5.30;4.80;;;;;;;;;;5053504;28;20065;-93
2022/10/09 10:57:21;;;;;;;4.05;3.75;;;;;;;;;;5053512;28;20048;-93
2022/10/09 10:59:55;;;;;;;5.90;5.40;;;;;;;;;;5052914;28;20053;-93
2022/10/09 11:02:45;;;;;;;4.47;3.95;;;;;;;;;;5072363;28;20495;-93
2022/10/09 11:05:18;;;;;;;5.53;4.43;;;;;;;;;;5072212;28;20480;-92
2022/10/09 11:07:49;;;;;;;4.15;3.42;;;;;;;;;;5053991;28;20053;-92
2022/10/09 11:10:17;;;;;;;4.57;4.13;;;;;;;;;;5053425;28;20124;-93
2022/10/09 11:12:48;;;;;;;4.05;3.65;;;;;;;;;;5053702;28;20510;-93
2022/10/09 11:15:20;;;;;;;5.82;5.05;;;;;;;;;;5061210;28;20534;-89
2022/10/09 11:17:51;;;;;;;4.53;3.85;;;;;;;;;;5062774;28;20052;-91
2022/10/09 11:20:32;;;;;;;6.15;4.43;;;;;;;;;;5055033;28;20049;-91
2022/10/09 11:23:05;;;;;;;3.75;3.45;;;;;;;;;;5073414;28;20052;-90
2022/10/09 11:25:34;;;;;;;5.10;4.15;;;;;;;;;;5072566;28;20057;-91
2022/10/09 11:28:02;;;;;;;4.63;4.22;;;;;;;;;;5071465;28;20098;-91
2022/10/09 11:30:32;;;;;;;3.60;3.30;;;;;;;;;;5070795;28;20139;-91
2022/10/09 11:33:02;;;;;;;4.70;4.40;;;;;;;;;;5052860;28;20103;-91
2022/10/09 11:35:29;;;;;;;;;;;;;;;;;;5069923;28;20503;-90
2022/10/09 11:37:59;;;;;;;4.22;3.90;;;;;;;;;;5052241;28;19920;-92
2022/10/09 11:40:28;;;;;;;4.43;4.03;;;;;;;;;;5053816;28;20049;-90
2022/10/09 11:42:58;;;;;;;6.88;5.15;;;;;;;;;;5072355;28;20052;-91
2022/10/09 11:45:26;;;;;;;;;;;;;;;;;;5072145;28;20045;-91
2022/10/09 11:47:59;;;;;;;4.13;3.38;;;;;;;;;;5072190;28;20363;-93
2022/10/09 11:50:43;;;;;;;5.53;5.07;;;;;;;;;;5071842;28;20067;-93
2022/10/09 11:53:11;;;;;;;5.93;4.07;;;;;;;;;;5072016;28;20044;-93
2022/10/09 11:55:38;;;;;;;3.50;2.80;;;;;;;;;;5070441;28;20501;-94
2022/10/09 11:58:08;;;;;;;5.88;5.25;;;;;;;;;;5051991;28;20070;-93
2022/10/09 12:00:36;;;;;;;5.55;4.47;;;;;;;;;;5052112;28;20057;-92
2022/10/09 12:03:05;;;;;;;4.38;3.97;;;;;;;;;;5051958;28;20385;-93
2022/10/09 12:05:35;;;;;;;5.45;5.00;;;;;;;;;;5051908;28;20057;-91
2022/10/09 12:08:09;;;;;;;5.43;4.93;;;;;;;;;;5052225;28;20045;-94
2022/10/09 12:10:39;;;;;;;4.97;4.47;;;;;;;;;;5051989;28;20060;-91
2022/10/09 12:13:07;;;;;;;6.35;4.78;;;;;;;;;;5054507;28;20048;-91
2022/10/09 12:15:38;;;;;;;4.93;3.95;;;;;;;;;;5055272;28;20538;-90
2022/10/09 12:18:14;;;;;;;8.63;5.80;;;;;;;;;;5055824;28;20055;-90
2022/10/09 12:20:44;;;;;;;4.38;4.05;;;;;;;;;;5060861;28;20064;-90
2022/10/09 12:23:10;;;;;;;6.07;3.60;;;;;;;;;;5075601;28;20450;-90
2022/10/09 12:25:39;;;;;;;5.55;5.15;;;;;;;;;;5075024;28;20056;-90
2022/10/09 12:28:06;;;;;;;5.60;3.80;;;;;;;;;;5075055;28;20066;-91
2022/10/09 12:30:35;;;;;;;5.78;4.03;;;;;;;;;;5073129;28;20056;-91
2022/10/09 12:33:04;;;;;;;6.32;5.72;;;;;;;;;;5062830;28;20045;-90
2022/10/09 12:35:34;;;;;;;4.25;3.85;;;;;;;;;;5063769;28;20056;-91
2022/10/09 12:38:01;;;;;;;7.38;6.65;;;;;;;;;;5061312;28;20048;-90
2022/10/09 12:40:29;;;;;;;3.85;3.53;;;;;;;;;;5075430;28;20089;-90
2022/10/09 12:42:56;;;;;;;4.57;4.18;;;;;;;;;;5056210;28;20094;-91
2022/10/09 12:45:24;;;;;;;5.90;5.50;;;;;;;;;;5060121;28;20045;-91
2022/10/09 12:47:51;;;;;;;5.13;4.68;;;;;;;;;;5072317;28;20060;-90
2022/10/09 12:50:23;;;;;;;4.47;3.83;;;;;;;;;;5074740;28;20052;-90
2022/10/09 12:52:52;;;;;;;6.43;3.70;;;;;;;;;;5074752;28;20143;-91
2022/10/09 12:55:24;;;;;;;4.57;4.25;;;;;;;;;;5073880;28;20098;-90
2022/10/09 12:57:51;;;;;;;4.45;3.45;;;;;;;;;;5074099;28;20617;-88
2022/10/09 13:00:18;;;;;;;4.20;3.83;;;;;;;;;;5074467;28;20052;-88
2022/10/09 13:02:44;;;;;;;4.63;4.10;;;;;;;;;;5074778;28;20052;-88
2022/10/09 13:05:11;;;;;;;5.32;4.90;;;;;;;;;;5074446;28;20053;-88
2022/10/09 13:07:37;;;;;;;5.78;5.35;;;;;;;;;;5074493;28;20057;-89
2022/10/09 13:10:07;;;;;;;5.05;4.63;;;;;;;;;;5074791;28;20056;-87
2022/10/09 13:12:33;;;;;;;5.35;4.60;;;;;;;;;;5064999;28;20049;-88
2022/10/09 13:15:01;;;;;;;5.07;4.63;;;;;;;;;;5074584;28;20462;-89
2022/10/09 13:17:29;;;;;;;5.85;5.38;;;;;;;;;;5061653;28;20119;-89
2022/10/09 13:19:57;;;;;;;5.78;5.28;;;;;;;;;;5054641;28;20049;-90
2022/10/09 13:22:24;;;;;;;6.15;4.90;;;;;;;;;;5053838;28;20460;-89
2022/10/09 13:24:52;;;;;;;7.70;6.93;;;;;;;;;;5054455;28;20091;-89
2022/10/09 13:27:20;;;;;;;5.03;4.60;;;;;;;;;;5054262;28;20080;-89
2022/10/09 13:29:47;;;;;;;5.85;5.35;;;;;;;;;;5054614;28;20041;-90
2022/10/09 13:32:14;;;;;;;5.72;4.70;;;;;;;;;;5054283;28;20451;-92
2022/10/09 13:34:41;;;;;;;4.20;3.45;;;;;;;;;;5054094;28;20041;-91
2022/10/09 13:37:09;;;;;;;8.27;4.82;;;;;;;;;;5053591;28;20075;-91
2022/10/09 13:39:35;;;;;;;3.55;3.30;;;;;;;;;;5054295;28;20115;-90
2022/10/09 13:42:02;;;;;;;4.50;4.15;;;;;;;;;;5053727;28;20065;-91
2022/10/09 13:44:30;;;;;;;6.88;3.92;;;;;;;;;;5053773;28;20463;-91
2022/10/09 13:46:56;;;;;;;4.38;3.97;;;;;;;;;;5067624;28;20466;-91
2022/10/09 13:49:23;;;;;;;5.38;4.88;;;;;;;;;;5074327;28;20094;-90
2022/10/09 13:51:49;;;;;;;6.85;6.15;;;;;;;;;;5068278;28;20530;-91
2022/10/09 13:54:16;;;;;;;5.18;4.82;;;;;;;;;;5071793;28;20052;-91
2022/10/09 13:56:42;;;;;;;4.55;4.15;;;;;;;;;;5069179;28;20446;-92
2022/10/09 13:59:09;;;;;;;6.38;4.93;;;;;;;;;;5071577;28;20052;-91
2022/10/09 14:01:37;;;;;;;6.75;6.35;;;;;;;;;;5072504;28;20105;-91
2022/10/09 14:04:03;;;;;;;5.20;4.28;;;;;;;;;;5073517;28;20098;-91
2022/10/09 14:06:30;;;;;;;5.93;5.20;;;;;;;;;;5073450;28;20113;-91
2022/10/09 14:08:57;;;;;;;5.22;4.22;;;;;;;;;;5073415;28;20541;-90
2022/10/09 14:11:23;;;;;;;6.20;5.80;;;;;;;;;;5072990;28;20040;-89
2022/10/09 14:13:50;;;;;;;5.93;5.43;;;;;;;;;;5073227;28;20098;-90
2022/10/09 14:16:16;;;;;;;5.25;4.85;;;;;;;;;;5071902;28;20101;-91
2022/10/09 14:18:44;;;;;;;5.85;5.35;;;;;;;;;;5073170;28;20447;-91
2022/10/09 14:21:11;;;;;;;5.93;5.45;;;;;;;;;;5073331;28;20102;-91
2022/10/09 14:23:37;;;;;;;5.38;4.97;;;;;;;;;;5072827;28;20051;-90
2022/10/09 14:26:04;;;;;;;6.35;4.90;;;;;;;;;;5073216;28;20138;-91
2022/10/09 14:28:30;;;;;;;4.32;3.92;;;;;;;;;;5072861;28;20109;-91
2022/10/09 14:30:57;;;;;;;4.40;3.97;;;;;;;;;;5073067;28;20454;-90
2022/10/09 14:33:24;;;;;;;5.47;5.07;;;;;;;;;;5071924;28;20044;-91
2022/10/09 14:35:51;;;;;;;4.82;4.43;;;;;;;;;;5071742;28;20503;-90
2022/10/09 14:38:18;;;;;;;4.35;3.95;;;;;;;;;;5072521;28;20048;-89
2022/10/09 14:40:45;;;;;;;4.50;4.10;;;;;;;;;;5072966;28;20052;-91
2022/10/09 14:43:11;;;;;;;4.72;4.32;;;;;;;;;;5073018;28;20052;-91
2022/10/09 14:45:38;;;;;;;5.60;4.95;;;;;;;;;;5072810;28;20491;-90
2022/10/09 14:48:04;;;;;;;4.80;4.03;;;;;;;;;;5060136;28;20668;-90